Time;durP1;ratioP1;P1;durP2;ratioP2;P2;SDS_P1;SDS_P2;PMS_P1;PMS_P2;Temp;Humidity;BMP_temperature;BMP_pressure;BME280_temperature;BME280_humidity;BME280_pressure;Samples;Min_cycle;Max_cycle;Signal;HPM_P1;HPM_P2
2022/07/17 00:01:59;;;;;;;0.50;0.47;;;22.50;50.70;;;;;;6194389;28;20089;-71
2022/07/17 00:05:00;;;;;;;0.60;0.50;;;22.50;50.70;;;;;;6193914;28;20030;-71
2022/07/17 00:08:00;;;;;;;0.30;0.30;;;22.50;50.80;;;;;;6194843;28;20026;-71
2022/07/17 00:11:01;;;;;;;0.35;0.35;;;22.50;50.80;;;;;;6195068;28;20022;-71
2022/07/17 00:14:02;;;;;;;0.63;0.50;;;22.50;50.80;;;;;;6194493;28;20463;-71
2022/07/17 00:17:03;;;;;;;2.85;0.57;;;22.50;50.90;;;;;;6195005;28;20046;-71
2022/07/17 00:20:04;;;;;;;0.63;0.40;;;22.40;50.90;;;;;;6194211;28;20778;-71
2022/07/17 00:23:05;;;;;;;0.95;0.60;;;22.50;51.00;;;;;;6194504;28;20085;-71
2022/07/17 00:26:05;;;;;;;2.05;0.45;;;22.40;50.90;;;;;;6194699;28;20027;-71
2022/07/17 00:29:06;;;;;;;0.88;0.50;;;22.50;51.00;;;;;;6194976;28;20049;-71
2022/07/17 00:32:07;;;;;;;0.55;0.50;;;22.50;51.00;;;;;;6194232;28;20039;-72
2022/07/17 00:35:08;;;;;;;0.63;0.57;;;22.40;51.00;;;;;;6194719;28;20102;-72
2022/07/17 00:38:10;;;;;;;0.60;0.50;;;22.40;51.00;;;;;;6194461;28;20492;-71
2022/07/17 00:41:14;;;;;;;0.57;0.50;;;22.40;51.00;;;;;;6194834;28;20126;-71
2022/07/17 00:44:15;;;;;;;0.80;0.60;;;22.40;51.00;;;;;;6195200;28;20735;-71
2022/07/17 00:47:20;;;;;;;0.47;0.40;;;22.40;51.10;;;;;;6198879;28;20042;-71
2022/07/17 00:50:21;;;;;;;;;;;22.40;51.10;;;;;;6199046;28;20050;-71
2022/07/17 00:53:23;;;;;;;0.40;0.40;;;22.40;51.10;;;;;;6198225;28;20431;-71
2022/07/17 00:56:24;;;;;;;0.68;0.40;;;22.40;51.20;;;;;;6198122;28;20093;-72
2022/07/17 00:59:26;;;;;;;0.70;0.50;;;22.40;51.20;;;;;;6198551;28;20512;-70
2022/07/17 01:02:26;;;;;;;0.40;0.35;;;22.40;51.30;;;;;;6198322;28;20369;-71
2022/07/17 01:05:27;;;;;;;0.40;0.40;;;22.40;51.20;;;;;;6197946;28;20034;-72
2022/07/17 01:08:28;;;;;;;1.17;0.68;;;22.40;51.20;;;;;;6198376;28;20112;-72
2022/07/17 01:11:29;;;;;;;0.35;0.35;;;22.40;51.30;;;;;;6198041;28;20057;-71
2022/07/17 01:14:31;;;;;;;0.80;0.40;;;22.40;51.30;;;;;;6198134;28;20022;-71
2022/07/17 01:17:31;;;;;;;0.68;0.47;;;22.40;51.30;;;;;;6198282;28;20033;-71
2022/07/17 01:20:33;;;;;;;0.75;0.50;;;22.40;51.30;;;;;;6198080;28;20027;-71
2022/07/17 01:23:33;;;;;;;0.43;0.43;;;22.40;51.40;;;;;;6197888;28;20037;-71
2022/07/17 01:26:34;;;;;;;0.80;0.47;;;22.40;51.40;;;;;;6197711;28;20022;-71
2022/07/17 01:29:38;;;;;;;0.40;0.40;;;22.40;51.40;;;;;;6197652;28;20493;-71
2022/07/17 01:32:41;;;;;;;1.48;0.57;;;22.40;51.40;;;;;;6196389;28;20035;-71
2022/07/17 01:35:42;;;;;;;0.50;0.50;;;22.40;51.40;;;;;;6197338;28;20030;-71
2022/07/17 01:38:42;;;;;;;0.82;0.40;;;22.40;51.40;;;;;;6197637;28;20366;-71
2022/07/17 01:41:43;;;;;;;0.70;0.45;;;22.40;51.40;;;;;;6197569;28;20026;-71
2022/07/17 01:44:43;;;;;;;1.00;0.70;;;22.40;51.50;;;;;;6197458;28;20030;-71
2022/07/17 01:47:45;;;;;;;0.38;0.38;;;22.40;52.50;;;;;;6197383;28;20026;-72
2022/07/17 01:50:45;;;;;;;0.50;0.40;;;22.40;52.40;;;;;;6197081;28;20101;-71
2022/07/17 01:53:46;;;;;;;0.82;0.50;;;22.40;51.80;;;;;;6196371;28;20058;-71
2022/07/17 01:56:46;;;;;;;0.52;0.40;;;22.40;51.70;;;;;;6197331;28;20030;-71
2022/07/17 01:59:47;;;;;;;0.75;0.50;;;22.40;51.70;;;;;;6197035;28;20053;-71
2022/07/17 02:02:48;;;;;;;0.68;0.50;;;22.40;51.70;;;;;;6197841;28;20073;-71
2022/07/17 02:05:48;;;;;;;0.52;0.50;;;22.40;51.60;;;;;;6196823;28;20014;-71
2022/07/17 02:08:50;;;;;;;0.40;0.40;;;22.40;51.70;;;;;;6197473;28;20030;-71
2022/07/17 02:11:53;;;;;;;0.60;0.50;;;22.40;51.70;;;;;;6196702;28;20030;-71
2022/07/17 02:14:55;;;;;;;0.45;0.40;;;22.40;51.70;;;;;;6196633;28;20146;-71
2022/07/17 02:17:57;;;;;;;1.17;0.52;;;22.40;51.70;;;;;;6196640;28;20023;-71
2022/07/17 02:20:59;;;;;;;0.50;0.40;;;22.40;51.70;;;;;;6196491;28;20428;-72
2022/07/17 02:24:02;;;;;;;0.60;0.50;;;22.40;51.70;;;;;;6196084;28;20030;-71
2022/07/17 02:27:04;;;;;;;0.90;0.50;;;22.40;51.70;;;;;;6195367;28;20489;-71
2022/07/17 02:30:16;;;;;;;0.40;0.40;;;22.30;51.60;;;;;;6195162;28;20033;-71
2022/07/17 02:33:17;;;;;;;0.50;0.50;;;22.30;51.70;;;;;;6195104;28;20500;-71
2022/07/17 02:36:18;;;;;;;0.98;0.45;;;22.40;51.80;;;;;;6195348;28;20025;-71
2022/07/17 02:39:18;;;;;;;0.90;0.60;;;22.40;51.80;;;;;;6196153;28;20101;-72
2022/07/17 02:42:24;;;;;;;0.38;0.35;;;22.40;51.80;;;;;;6196381;28;20101;-72
2022/07/17 02:45:25;;;;;;;0.63;0.50;;;22.40;51.80;;;;;;6196015;28;20101;-71
2022/07/17 02:48:25;;;;;;;0.55;0.38;;;22.40;51.90;;;;;;6196066;28;20056;-72
2022/07/17 02:51:26;;;;;;;0.75;0.40;;;22.40;51.90;;;;;;6195614;28;20025;-71
2022/07/17 02:54:26;;;;;;;0.55;0.50;;;22.40;51.90;;;;;;6195935;28;20038;-72
2022/07/17 02:57:27;;;;;;;0.32;0.32;;;22.40;51.90;;;;;;6195976;28;20073;-71
2022/07/17 03:00:28;;;;;;;0.45;0.40;;;22.30;51.80;;;;;;6195573;28;20362;-71
2022/07/17 03:03:28;;;;;;;0.85;0.50;;;22.30;51.80;;;;;;6195727;28;20019;-71
2022/07/17 03:06:29;;;;;;;0.40;0.40;;;22.40;52.60;;;;;;6195003;28;20466;-71
2022/07/17 03:09:30;;;;;;;0.98;0.52;;;22.40;51.90;;;;;;6195427;28;20504;-71
2022/07/17 03:12:31;;;;;;;0.57;0.50;;;22.30;51.90;;;;;;6195682;28;20034;-71
2022/07/17 03:15:32;;;;;;;0.90;0.50;;;22.40;52.00;;;;;;6195242;28;20378;-71
2022/07/17 03:18:32;;;;;;;0.40;0.38;;;22.30;51.90;;;;;;6195404;28;20082;-71
2022/07/17 03:21:33;;;;;;;0.50;0.50;;;22.30;51.90;;;;;;6195206;28;20678;-71
2022/07/17 03:24:34;;;;;;;0.50;0.50;;;22.30;51.90;;;;;;6194733;28;20093;-71
2022/07/17 03:27:34;;;;;;;0.57;0.40;;;22.30;51.90;;;;;;6195025;28;20030;-71
2022/07/17 03:30:35;;;;;;;0.65;0.55;;;22.40;52.00;;;;;;6195065;28;20109;-71
2022/07/17 03:33:36;;;;;;;0.65;0.50;;;22.30;52.00;;;;;;6195241;28;20027;-71
2022/07/17 03:36:37;;;;;;;0.57;0.40;;;22.30;52.00;;;;;;6195201;28;20388;-71
2022/07/17 03:39:37;;;;;;;1.27;0.50;;;22.30;52.00;;;;;;6195053;28;20030;-71
2022/07/17 03:42:38;;;;;;;0.45;0.40;;;22.30;52.00;;;;;;6195209;28;20026;-71
2022/07/17 03:45:39;;;;;;;0.50;0.50;;;22.30;52.00;;;;;;6195505;28;20437;-71
2022/07/17 03:48:39;;;;;;;0.57;0.50;;;22.30;52.10;;;;;;6194933;28;20050;-71
2022/07/17 03:51:40;;;;;;;0.82;0.45;;;22.30;52.00;;;;;;6194792;28;20058;-71
2022/07/17 03:54:40;;;;;;;0.77;0.45;;;22.30;52.10;;;;;;6194896;28;20055;-71
2022/07/17 03:57:41;;;;;;;0.60;0.50;;;22.30;52.10;;;;;;6194996;28;20041;-71
2022/07/17 04:00:42;;;;;;;0.50;0.50;;;22.30;52.10;;;;;;6194846;28;20030;-71
2022/07/17 04:03:42;;;;;;;0.75;0.60;;;22.30;52.10;;;;;;6195244;28;20030;-71
2022/07/17 04:06:43;;;;;;;0.95;0.50;;;22.30;52.10;;;;;;6194755;28;20040;-71
2022/07/17 04:09:43;;;;;;;0.55;0.50;;;22.30;52.10;;;;;;6194851;28;20097;-71
2022/07/17 04:12:44;;;;;;;0.82;0.47;;;22.30;52.20;;;;;;6194732;28;20030;-71
2022/07/17 04:15:56;;;;;;;0.75;0.43;;;22.30;52.10;;;;;;6195064;28;20097;-71
2022/07/17 04:18:57;;;;;;;1.08;0.50;;;22.30;52.20;;;;;;6198655;28;20023;-71
2022/07/17 04:21:57;;;;;;;0.47;0.43;;;22.30;52.10;;;;;;6199596;28;20081;-70
2022/07/17 04:24:58;;;;;;;0.65;0.38;;;22.30;52.20;;;;;;6196129;28;20639;-71
2022/07/17 04:27:58;;;;;;;0.60;0.40;;;22.30;52.20;;;;;;6199325;28;20504;-71
2022/07/17 04:31:00;;;;;;;0.52;0.50;;;22.30;52.20;;;;;;6198645;28;20026;-71
2022/07/17 04:34:00;;;;;;;0.98;0.50;;;22.30;52.20;;;;;;6199101;28;20042;-71
2022/07/17 04:37:02;;;;;;;0.43;0.43;;;22.30;52.20;;;;;;6199014;28;20038;-70
2022/07/17 04:40:04;;;;;;;0.38;0.32;;;22.30;52.30;;;;;;6181480;28;20036;-71
2022/07/17 04:43:05;;;;;;;0.40;0.40;;;22.30;52.20;;;;;;6198870;28;20033;-71
2022/07/17 04:46:06;;;;;;;0.40;0.40;;;22.30;52.30;;;;;;6198773;28;20027;-71
2022/07/17 04:49:07;;;;;;;0.47;0.43;;;22.30;52.30;;;;;;6198149;28;20140;-71
2022/07/17 04:52:07;;;;;;;1.00;0.60;;;22.30;52.30;;;;;;6181186;28;20038;-71
2022/07/17 04:55:08;;;;;;;0.50;0.50;;;22.30;52.30;;;;;;6198568;28;20058;-71
2022/07/17 04:58:09;;;;;;;0.73;0.50;;;22.30;52.40;;;;;;6198590;28;20536;-71
2022/07/17 05:01:09;;;;;;;0.45;0.40;;;22.30;52.40;;;;;;6197466;28;20104;-71
2022/07/17 05:04:10;;;;;;;0.75;0.50;;;22.30;52.40;;;;;;6198469;28;20027;-72
2022/07/17 05:07:10;;;;;;;0.50;0.40;;;22.30;52.40;;;;;;6198425;28;20447;-71
2022/07/17 05:10:11;;;;;;;0.40;0.40;;;22.30;52.40;;;;;;6198599;28;20026;-71
2022/07/17 05:13:12;;;;;;;0.68;0.40;;;22.30;52.40;;;;;;6198041;28;20516;-71
2022/07/17 05:16:13;;;;;;;0.70;0.52;;;22.30;52.40;;;;;;6198218;28;20023;-71
2022/07/17 05:19:13;;;;;;;0.30;0.30;;;22.30;52.40;;;;;;6198063;28;20033;-71
2022/07/17 05:22:14;;;;;;;0.40;0.40;;;22.30;52.40;;;;;;6197747;28;20033;-71
2022/07/17 05:25:15;;;;;;;0.50;0.45;;;22.30;52.40;;;;;;6198106;28;20517;-71
2022/07/17 05:28:16;;;;;;;0.70;0.30;;;22.30;52.40;;;;;;6197702;28;20026;-71
2022/07/17 05:31:17;;;;;;;0.60;0.60;;;22.30;52.40;;;;;;6197730;28;20542;-71
2022/07/17 05:34:18;;;;;;;0.43;0.43;;;22.30;52.40;;;;;;6197504;28;20026;-71
2022/07/17 05:37:18;;;;;;;0.75;0.50;;;22.30;52.40;;;;;;6198014;28;20022;-71
2022/07/17 05:40:19;;;;;;;0.32;0.32;;;22.30;52.50;;;;;;6197562;28;20414;-71
2022/07/17 05:43:19;;;;;;;0.40;0.40;;;22.30;52.50;;;;;;6197645;28;20022;-71
2022/07/17 05:46:20;;;;;;;0.65;0.50;;;22.30;52.50;;;;;;6197389;28;20409;-71
2022/07/17 05:49:21;;;;;;;0.50;0.50;;;22.30;52.50;;;;;;6195396;28;20062;-71
2022/07/17 05:52:21;;;;;;;0.80;0.50;;;22.30;52.50;;;;;;6195459;28;20069;-71
2022/07/17 05:55:22;;;;;;;0.30;0.30;;;22.30;52.50;;;;;;6195980;28;20129;-71
2022/07/17 05:58:23;;;;;;;0.60;0.40;;;22.30;52.50;;;;;;6195418;28;20031;-71
2022/07/17 06:01:23;;;;;;;0.47;0.40;;;22.30;52.60;;;;;;6196000;28;20470;-71
2022/07/17 06:04:24;;;;;;;0.55;0.50;;;22.30;52.60;;;;;;6195589;28;20041;-71
2022/07/17 06:07:25;;;;;;;0.70;0.40;;;22.30;52.60;;;;;;6194784;28;20503;-70
2022/07/17 06:10:26;;;;;;;0.32;0.32;;;22.30;52.60;;;;;;6194965;28;20030;-71
2022/07/17 06:13:27;;;;;;;0.73;0.43;;;22.30;52.70;;;;;;6195348;28;20038;-70
2022/07/17 06:16:28;;;;;;;0.82;0.50;;;22.30;52.70;;;;;;6190210;28;20073;-70
2022/07/17 06:19:28;;;;;;;0.40;0.40;;;22.30;52.70;;;;;;6194934;28;20090;-71
2022/07/17 06:22:29;;;;;;;0.73;0.43;;;22.30;52.70;;;;;;6194446;28;20019;-71
2022/07/17 06:25:30;;;;;;;0.47;0.45;;;22.30;52.70;;;;;;6194637;28;20023;-71
2022/07/17 06:28:31;;;;;;;0.40;0.40;;;22.30;53.40;;;;;;6194354;28;20073;-71
2022/07/17 06:31:31;;;;;;;0.52;0.30;;;22.30;52.70;;;;;;6195175;28;20026;-71
2022/07/17 06:34:32;;;;;;;0.45;0.40;;;22.30;52.70;;;;;;6194346;28;20049;-70
2022/07/17 06:37:32;;;;;;;0.40;0.40;;;22.30;52.80;;;;;;6194484;28;20516;-71
2022/07/17 06:40:33;;;;;;;0.68;0.50;;;22.30;52.80;;;;;;6193227;28;20092;-70
2022/07/17 06:43:34;;;;;;;0.52;0.50;;;22.30;52.80;;;;;;6194661;28;20058;-72
2022/07/17 06:46:34;;;;;;;0.38;0.38;;;22.30;52.80;;;;;;6194424;28;20030;-71
2022/07/17 06:49:35;;;;;;;0.43;0.35;;;22.30;52.80;;;;;;6194003;28;20108;-71
2022/07/17 06:52:36;;;;;;;0.50;0.40;;;22.30;52.80;;;;;;6194064;28;20048;-71
2022/07/17 06:55:36;;;;;;;0.40;0.40;;;22.30;52.80;;;;;;6193803;28;20037;-71
2022/07/17 06:58:37;;;;;;;0.43;0.43;;;22.30;52.80;;;;;;6193818;28;20102;-70
2022/07/17 07:01:38;;;;;;;0.30;0.30;;;22.30;52.80;;;;;;6193380;28;20033;-71
2022/07/17 07:04:38;;;;;;;0.40;0.30;;;22.30;52.80;;;;;;6193676;28;20027;-71
2022/07/17 07:07:39;;;;;;;0.90;0.40;;;22.30;52.80;;;;;;6193976;28;20029;-71
2022/07/17 07:10:40;;;;;;;0.30;0.30;;;22.30;52.80;;;;;;6193721;28;20030;-70
2022/07/17 07:13:40;;;;;;;0.50;0.45;;;22.30;52.90;;;;;;6193561;28;20042;-71
2022/07/17 07:16:41;;;;;;;0.30;0.30;;;22.30;52.90;;;;;;6193638;28;20022;-71
2022/07/17 07:19:41;;;;;;;0.77;0.40;;;22.30;52.90;;;;;;6194201;28;20080;-71
2022/07/17 07:22:42;;;;;;;0.20;0.20;;;22.30;52.90;;;;;;6193225;28;20070;-71
2022/07/17 07:25:44;;;;;;;0.30;0.25;;;22.30;52.90;;;;;;6193376;28;20200;-71
2022/07/17 07:28:44;;;;;;;0.65;0.40;;;22.30;52.90;;;;;;6193111;28;20025;-71
2022/07/17 07:31:47;;;;;;;0.70;0.40;;;22.30;52.90;;;;;;6192361;28;20470;-71
2022/07/17 07:34:48;;;;;;;0.52;0.40;;;22.30;52.90;;;;;;6192631;28;20026;-71
2022/07/17 07:37:49;;;;;;;0.50;0.43;;;22.30;52.90;;;;;;6193183;28;20023;-71
2022/07/17 07:40:50;;;;;;;0.60;0.40;;;22.30;52.90;;;;;;6193092;28;20511;-71
2022/07/17 07:43:50;;;;;;;0.80;0.55;;;22.30;52.90;;;;;;6193486;28;20110;-72
2022/07/17 07:46:51;;;;;;;0.65;0.45;;;22.30;52.90;;;;;;6188378;28;20401;-72
2022/07/17 07:49:52;;;;;;;0.40;0.40;;;22.30;53.00;;;;;;6193160;28;20062;-70
2022/07/17 07:52:53;;;;;;;0.35;0.35;;;22.30;52.90;;;;;;6196658;28;20033;-71
2022/07/17 07:55:53;;;;;;;1.40;0.60;;;22.30;52.90;;;;;;6198134;28;20030;-70
2022/07/17 07:58:54;;;;;;;0.75;0.40;;;22.30;52.90;;;;;;6198466;28;20037;-71
2022/07/17 08:01:55;;;;;;;0.65;0.50;;;22.30;52.90;;;;;;6197640;28;20033;-71
2022/07/17 08:04:56;;;;;;;0.63;0.30;;;22.30;52.90;;;;;;6198348;28;20491;-70
2022/07/17 08:07:57;;;;;;;0.30;0.30;;;22.30;52.90;;;;;;6197437;28;20034;-70
2022/07/17 08:10:57;;;;;;;0.60;0.30;;;22.30;53.00;;;;;;6197753;28;20036;-70
2022/07/17 08:13:59;;;;;;;0.40;0.30;;;22.30;52.90;;;;;;6197869;28;20125;-71
2022/07/17 08:16:59;;;;;;;0.75;0.50;;;22.30;53.00;;;;;;6197504;28;20539;-70
2022/07/17 08:20:00;;;;;;;0.55;0.38;;;22.30;52.90;;;;;;6197629;28;20022;-71
2022/07/17 08:23:00;;;;;;;0.43;0.30;;;22.30;53.00;;;;;;6197043;28;20025;-71
2022/07/17 08:26:02;;;;;;;2.25;0.47;;;22.30;53.00;;;;;;6179243;28;20070;-71
2022/07/17 08:29:03;;;;;;;0.40;0.40;;;22.30;53.00;;;;;;6197376;28;20088;-71
2022/07/17 08:32:04;;;;;;;1.15;0.40;;;22.20;52.90;;;;;;6196882;28;20031;-70
2022/07/17 08:35:05;;;;;;;0.40;0.40;;;22.30;53.00;;;;;;6197433;28;20085;-71
2022/07/17 08:38:06;;;;;;;0.38;0.35;;;22.20;52.90;;;;;;6196973;28;20029;-71
2022/07/17 08:41:09;;;;;;;0.28;0.28;;;22.30;53.10;;;;;;6197598;28;20022;-71
2022/07/17 08:44:10;;;;;;;0.40;0.30;;;22.30;53.00;;;;;;6197193;28;20041;-71
2022/07/17 08:47:12;;;;;;;0.88;0.32;;;22.30;53.00;;;;;;6196943;28;20027;-70
2022/07/17 08:50:13;;;;;;;0.60;0.50;;;22.20;53.00;;;;;;6196798;28;20121;-70
2022/07/17 08:53:14;;;;;;;0.82;0.30;;;22.20;53.00;;;;;;6197056;28;20291;-71
2022/07/17 08:56:14;;;;;;;0.32;0.32;;;22.20;53.00;;;;;;6196584;28;20080;-72
2022/07/17 08:59:15;;;;;;;0.68;0.50;;;22.20;53.00;;;;;;6196533;28;20324;-71
2022/07/17 09:02:16;;;;;;;0.30;0.30;;;22.20;53.00;;;;;;6196133;28;20647;-71
2022/07/17 09:05:20;;;;;;;0.38;0.38;;;22.20;53.10;;;;;;6195979;28;20077;-71
2022/07/17 09:08:23;;;;;;;0.45;0.40;;;22.20;53.10;;;;;;6196456;28;20034;-71
2022/07/17 09:11:24;;;;;;;0.32;0.32;;;22.20;53.10;;;;;;6196004;28;20030;-71
2022/07/17 09:14:39;;;;;;;0.45;0.43;;;22.20;53.10;;;;;;6196070;28;20061;-71
2022/07/17 09:17:51;;;;;;;0.35;0.35;;;22.20;53.10;;;;;;6193820;28;20105;-70
2022/07/17 09:20:55;;;;;;;0.38;0.30;;;22.20;53.10;;;;;;6191690;28;20041;-71
2022/07/17 09:24:07;;;;;;;0.55;0.32;;;22.20;53.10;;;;;;6175540;28;20022;-71
2022/07/17 09:27:08;;;;;;;0.40;0.40;;;22.20;53.10;;;;;;6182850;28;20029;-71
2022/07/17 09:30:11;;;;;;;0.20;0.20;;;22.20;53.10;;;;;;6196016;28;20022;-71
2022/07/17 09:33:20;;;;;;;0.50;0.50;;;22.20;53.20;;;;;;6156397;28;20059;-72
2022/07/17 09:36:22;;;;;;;0.30;0.30;;;22.20;53.90;;;;;;6168272;28;20122;-71
2022/07/17 09:39:22;;;;;;;0.60;0.40;;;22.20;53.10;;;;;;6169985;28;20023;-70
2022/07/17 09:42:31;;;;;;;0.60;0.45;;;22.20;53.10;;;;;;6170359;28;20023;-71
2022/07/17 09:45:35;;;;;;;0.70;0.40;;;22.20;53.10;;;;;;6169012;28;20030;-71
2022/07/17 09:48:46;;;;;;;0.52;0.47;;;22.20;53.10;;;;;;6159609;28;20273;-72
2022/07/17 09:51:48;;;;;;;0.30;0.30;;;22.20;52.60;;;;;;6167073;28;20405;-72
2022/07/17 09:54:52;;;;;;;2.70;0.73;;;22.30;52.30;;;;;;6163466;28;20164;-71
2022/07/17 09:57:54;;;;;;;1.95;0.60;;;22.20;52.30;;;;;;6167531;28;20530;-71
2022/07/17 10:00:55;;;;;;;1.02;0.40;;;22.20;52.30;;;;;;6168875;28;20034;-71
2022/07/17 10:03:55;;;;;;;0.55;0.40;;;22.20;52.50;;;;;;6169390;28;20390;-72
2022/07/17 10:06:56;;;;;;;0.73;0.50;;;22.20;52.40;;;;;;6169540;28;20022;-72
2022/07/17 10:09:58;;;;;;;1.60;0.70;;;22.20;52.10;;;;;;6169795;28;20102;-71
2022/07/17 10:12:59;;;;;;;3.60;0.98;;;22.20;52.10;;;;;;6168516;28;20347;-71
2022/07/17 10:16:00;;;;;;;0.90;0.50;;;22.20;51.80;;;;;;6168798;28;20027;-72
2022/07/17 10:19:02;;;;;;;4.07;1.30;;;22.20;51.90;;;;;;6169197;28;20043;-71
2022/07/17 10:22:05;;;;;;;1.40;0.55;;;22.20;51.50;;;;;;6168172;28;20035;-71
2022/07/17 10:25:06;;;;;;;1.60;0.65;;;22.20;51.70;;;;;;6169598;28;20023;-71
2022/07/17 10:28:07;;;;;;;0.77;0.50;;;22.20;51.80;;;;;;6167500;28;20045;-71
2022/07/17 10:31:08;;;;;;;2.20;0.50;;;22.20;52.50;;;;;;6168696;28;20035;-71
2022/07/17 10:34:09;;;;;;;0.60;0.40;;;22.20;52.80;;;;;;6168256;28;20057;-70
2022/07/17 10:37:21;;;;;;;1.80;0.70;;;22.20;52.80;;;;;;6167171;28;20047;-71
2022/07/17 10:40:29;;;;;;;1.13;0.50;;;22.20;52.30;;;;;;6169728;28;20027;-71
2022/07/17 10:43:44;;;;;;;1.15;0.50;;;22.20;52.40;;;;;;6169269;28;20031;-72
2022/07/17 10:46:44;;;;;;;1.52;0.70;;;22.20;52.40;;;;;;6169684;28;20638;-72
2022/07/17 10:49:45;;;;;;;1.52;0.50;;;22.20;52.40;;;;;;6169359;28;20070;-71
2022/07/17 10:53:18;;;;;;;0.70;0.45;;;22.20;52.60;;;;;;6167211;28;20039;-71
2022/07/17 10:56:19;;;;;;;1.90;0.60;;;22.20;52.60;;;;;;6166799;28;20029;-71
2022/07/17 10:59:21;;;;;;;0.68;0.40;;;22.20;52.70;;;;;;6167739;28;20482;-70
2022/07/17 11:02:29;;;;;;;0.63;0.43;;;22.20;52.70;;;;;;6143106;28;20309;-71
2022/07/17 11:05:30;;;;;;;0.75;0.47;;;22.20;52.80;;;;;;6160491;28;20054;-71
2022/07/17 11:08:31;;;;;;;0.68;0.50;;;22.20;52.90;;;;;;6150189;28;20034;-72
2022/07/17 11:11:39;;;;;;;1.15;0.47;;;22.20;53.00;;;;;;6132318;28;20105;-71
2022/07/17 11:14:40;;;;;;;0.70;0.40;;;22.20;53.00;;;;;;6115107;28;20057;-71
2022/07/17 11:17:46;;;;;;;0.65;0.40;;;22.30;53.00;;;;;;6169129;28;20019;-72
2022/07/17 11:20:55;;;;;;;1.38;0.50;;;22.30;53.00;;;;;;6169616;28;20089;-71
2022/07/17 11:23:57;;;;;;;0.82;0.50;;;22.30;53.00;;;;;;6166514;28;20341;-71
2022/07/17 11:26:57;;;;;;;0.50;0.45;;;22.30;53.00;;;;;;6165748;28;20039;-71
2022/07/17 11:30:01;;;;;;;0.43;0.43;;;22.30;53.00;;;;;;6180636;28;20065;-70
2022/07/17 11:33:03;;;;;;;0.52;0.40;;;22.30;53.00;;;;;;6156136;28;20039;-71
2022/07/17 11:36:04;;;;;;;0.55;0.50;;;22.30;53.00;;;;;;6168648;28;20059;-71
2022/07/17 11:39:13;;;;;;;0.43;0.40;;;22.30;53.00;;;;;;6167399;28;20023;-71
2022/07/17 11:42:17;;;;;;;0.82;0.50;;;22.30;53.00;;;;;;6160236;28;20028;-71
2022/07/17 11:45:20;;;;;;;0.77;0.40;;;22.30;53.00;;;;;;6164636;28;20019;-71
2022/07/17 11:48:21;;;;;;;0.77;0.40;;;22.30;53.00;;;;;;6168926;28;20402;-71
2022/07/17 11:51:32;;;;;;;0.75;0.40;;;22.30;53.00;;;;;;6168316;28;20027;-72
2022/07/17 11:55:03;;;;;;;0.55;0.40;;;22.30;53.00;;;;;;6168840;28;20313;-71
2022/07/17 11:58:04;;;;;;;0.82;0.40;;;22.30;53.00;;;;;;6168222;28;20050;-71
2022/07/17 12:01:04;;;;;;;0.40;0.40;;;22.30;53.00;;;;;;6168026;28;20050;-71
2022/07/17 12:04:08;;;;;;;1.02;0.50;;;22.40;53.10;;;;;;6169016;28;20026;-71
2022/07/17 12:07:09;;;;;;;0.60;0.40;;;22.30;53.00;;;;;;6168245;28;20030;-71
2022/07/17 12:10:20;;;;;;;0.30;0.28;;;22.30;53.70;;;;;;6169036;28;20026;-71
2022/07/17 12:13:20;;;;;;;0.65;0.50;;;22.30;53.00;;;;;;6168745;28;20070;-71
2022/07/17 12:16:29;;;;;;;0.98;0.30;;;22.40;53.10;;;;;;6168549;28;20027;-72
2022/07/17 12:19:30;;;;;;;1.42;0.57;;;22.40;53.10;;;;;;6168905;28;20023;-71
2022/07/17 12:22:41;;;;;;;0.40;0.30;;;22.30;53.10;;;;;;6168239;28;20362;-71
2022/07/17 12:25:42;;;;;;;0.75;0.50;;;22.40;53.10;;;;;;6157474;28;20524;-72
2022/07/17 12:28:43;;;;;;;1.08;0.50;;;22.30;53.10;;;;;;6168550;28;20030;-72
2022/07/17 12:31:44;;;;;;;1.13;0.50;;;22.40;53.20;;;;;;6168689;28;20373;-71
2022/07/17 12:34:48;;;;;;;0.50;0.40;;;22.40;53.10;;;;;;6168417;28;20046;-71
2022/07/17 12:37:49;;;;;;;;;;;22.40;53.20;;;;;;6168797;28;20058;-70
2022/07/17 12:40:50;;;;;;;0.57;0.40;;;22.40;53.20;;;;;;6172126;28;19906;-71
2022/07/17 12:43:50;;;;;;;0.50;0.40;;;22.40;53.20;;;;;;6172744;28;20030;-70
2022/07/17 12:46:51;;;;;;;4.40;0.47;;;22.30;53.10;;;;;;6172174;28;20035;-70
2022/07/17 12:49:52;;;;;;;0.43;0.40;;;22.30;53.10;;;;;;6172037;28;20050;-71
2022/07/17 12:52:53;;;;;;;2.33;0.38;;;22.30;53.10;;;;;;6168429;28;20271;-71
2022/07/17 12:55:53;;;;;;;0.50;0.38;;;22.40;53.20;;;;;;6171852;28;20162;-71
2022/07/17 12:58:54;;;;;;;0.50;0.50;;;22.40;53.20;;;;;;6172726;28;20039;-71
2022/07/17 13:01:55;;;;;;;0.45;0.30;;;22.40;53.20;;;;;;6172360;28;20201;-72
2022/07/17 13:04:55;;;;;;;0.70;0.40;;;22.40;53.20;;;;;;6172357;28;20019;-71
2022/07/17 13:07:56;;;;;;;0.95;0.50;;;22.40;53.20;;;;;;6170674;28;20057;-72
2022/07/17 13:10:58;;;;;;;0.30;0.30;;;22.40;53.20;;;;;;6162021;28;20118;-71
2022/07/17 13:13:58;;;;;;;0.93;0.40;;;22.40;53.30;;;;;;6172715;28;20047;-71
2022/07/17 13:17:00;;;;;;;0.90;0.43;;;22.40;53.20;;;;;;6171611;28;20565;-71
2022/07/17 13:20:01;;;;;;;0.30;0.30;;;22.40;53.20;;;;;;6172581;28;20129;-71
2022/07/17 13:23:02;;;;;;;1.05;0.52;;;22.40;53.30;;;;;;6169593;28;20035;-71
2022/07/17 13:26:03;;;;;;;0.82;0.40;;;22.40;53.20;;;;;;6158437;28;20129;-72
2022/07/17 13:29:04;;;;;;;0.80;0.32;;;22.40;53.30;;;;;;6171697;28;20049;-71
2022/07/17 13:32:05;;;;;;;0.40;0.40;;;22.40;53.30;;;;;;6170825;28;20050;-71
2022/07/17 13:35:06;;;;;;;0.20;0.20;;;22.40;53.30;;;;;;6170466;28;20038;-71
2022/07/17 13:38:08;;;;;;;0.60;0.40;;;22.40;53.30;;;;;;6171201;28;20094;-72
2022/07/17 13:41:09;;;;;;;2.25;0.40;;;22.40;54.00;;;;;;6170920;28;20031;-71
2022/07/17 13:44:10;;;;;;;0.90;0.45;;;22.40;53.30;;;;;;6171043;28;20363;-71
2022/07/17 13:47:11;;;;;;;0.38;0.30;;;22.40;53.30;;;;;;6170237;28;20486;-72
2022/07/17 13:50:12;;;;;;;0.50;0.35;;;22.40;53.30;;;;;;6170770;28;20476;-72
2022/07/17 13:53:13;;;;;;;0.45;0.40;;;22.30;53.20;;;;;;6170765;28;20030;-72
2022/07/17 13:56:13;;;;;;;0.40;0.40;;;22.40;53.30;;;;;;6170464;28;20077;-71
2022/07/17 13:59:14;;;;;;;0.65;0.30;;;22.40;53.40;;;;;;6170967;28;20031;-71
2022/07/17 14:02:15;;;;;;;0.57;0.30;;;22.40;53.40;;;;;;6170911;28;20030;-72
2022/07/17 14:05:16;;;;;;;0.30;0.30;;;22.40;53.70;;;;;;6170474;28;20026;-72
2022/07/17 14:08:17;;;;;;;1.90;0.50;;;22.40;53.40;;;;;;6170288;28;20054;-71
2022/07/17 14:11:17;;;;;;;0.40;0.30;;;22.40;53.40;;;;;;6170804;28;20030;-71
2022/07/17 14:14:18;;;;;;;0.20;0.20;;;22.40;53.40;;;;;;6166858;28;20153;-71
2022/07/17 14:17:19;;;;;;;0.57;0.40;;;22.40;53.40;;;;;;6170227;28;20109;-71
2022/07/17 14:20:19;;;;;;;0.68;0.50;;;22.40;53.40;;;;;;6168098;28;20458;-71
2022/07/17 14:23:20;;;;;;;0.50;0.43;;;22.40;53.30;;;;;;6170111;28;20469;-71
2022/07/17 14:26:21;;;;;;;0.30;0.30;;;22.40;53.40;;;;;;6160782;28;20102;-71
2022/07/17 14:29:21;;;;;;;0.73;0.40;;;22.40;53.40;;;;;;6170503;28;20157;-70
2022/07/17 14:32:22;;;;;;;0.52;0.40;;;22.40;53.40;;;;;;6154723;28;20110;-71
2022/07/17 14:35:23;;;;;;;0.30;0.30;;;22.40;53.40;;;;;;6170354;28;20422;-71
2022/07/17 14:38:23;;;;;;;0.32;0.30;;;22.40;53.40;;;;;;6167880;28;20039;-70
2022/07/17 14:41:26;;;;;;;0.70;0.50;;;22.40;53.40;;;;;;6170186;28;20466;-71
2022/07/17 14:44:27;;;;;;;0.43;0.30;;;22.40;53.40;;;;;;6160832;28;20109;-70
2022/07/17 14:47:27;;;;;;;0.63;0.50;;;22.40;53.40;;;;;;6170176;28;20031;-71
2022/07/17 14:50:28;;;;;;;0.47;0.30;;;22.40;53.40;;;;;;6169865;28;20099;-71
2022/07/17 14:53:29;;;;;;;0.55;0.30;;;22.40;53.40;;;;;;6168759;28;20031;-71
2022/07/17 14:56:30;;;;;;;1.20;0.40;;;22.40;53.40;;;;;;6169152;28;20035;-71
2022/07/17 14:59:31;;;;;;;0.75;0.40;;;22.40;53.40;;;;;;6161908;28;20525;-71
2022/07/17 15:02:31;;;;;;;0.50;0.40;;;22.40;53.40;;;;;;6168924;28;20027;-71
2022/07/17 15:05:32;;;;;;;0.60;0.20;;;22.40;53.40;;;;;;6169441;28;20031;-71
2022/07/17 15:08:33;;;;;;;0.75;0.38;;;22.40;53.40;;;;;;6169705;28;20069;-71
2022/07/17 15:11:33;;;;;;;0.88;0.30;;;22.40;53.50;;;;;;6152316;28;20030;-71
2022/07/17 15:14:34;;;;;;;0.65;0.40;;;22.40;53.40;;;;;;6169066;28;20057;-71
2022/07/17 15:17:35;;;;;;;0.40;0.40;;;22.40;53.40;;;;;;6169145;28;20500;-71
2022/07/17 15:20:36;;;;;;;0.68;0.40;;;22.40;53.40;;;;;;6168949;28;20480;-71
2022/07/17 15:23:37;;;;;;;0.70;0.38;;;22.40;53.40;;;;;;6168269;28;20109;-71
2022/07/17 15:26:38;;;;;;;0.50;0.38;;;22.40;53.50;;;;;;6153734;28;20049;-70
2022/07/17 15:29:39;;;;;;;0.40;0.40;;;22.40;53.50;;;;;;6169646;28;20113;-71
2022/07/17 15:32:39;;;;;;;0.50;0.30;;;22.40;53.50;;;;;;6169148;28;20062;-71
2022/07/17 15:35:40;;;;;;;0.28;0.28;;;22.40;53.50;;;;;;6169649;28;20474;-71
2022/07/17 15:38:40;;;;;;;0.28;0.28;;;22.40;53.50;;;;;;6169566;28;20462;-71
2022/07/17 15:41:41;;;;;;;0.32;0.32;;;22.40;53.50;;;;;;6167802;28;20126;-71
2022/07/17 15:44:42;;;;;;;0.50;0.30;;;22.30;53.40;;;;;;6168602;28;20069;-70
2022/07/17 15:47:42;;;;;;;0.30;0.30;;;22.40;53.50;;;;;;6166786;28;20027;-70